AirNav   ATP
 
 792 users online  

87I Yazoo County Airport
Yazoo City, Mississippi, USA

GOING TO YAZOO CITY?


FAA INFORMATION EFFECTIVE 09 NOVEMBER 2017

Location

FAA Identifier: 87I
Lat/Long: 32-53-00.6000N / 090-27-50.4000W
32-53.010000N / 090-27.840000W
32.8835000 / -90.4640000
(estimated)
Elevation: 105.3 ft. / 32.1 m (surveyed)
Variation: 00E (2010)
From city: 4 miles NW of YAZOO CITY, MS
Time zone: UTC -6 (UTC -5 during Daylight Saving Time)
Zip code: 39194

Airport Operations

Airport use: Open to the public
Activation date: 11/1989
Control tower: no
ARTCC: MEMPHIS CENTER
FSS: GREENWOOD FLIGHT SERVICE STATION
NOTAMs facility: GWO (NOTAM-D service available)
Attendance: UNATNDD
Wind indicator: lighted
Segmented circle: yes
Lights: MIRL RY 17/35 PRESET LOW INTST DUSK-2200; AFTER 2200 TO INCR INTST ACTVT - CTAF. PAPI RY 17 & 35 OPER CONT.
Beacon: white-green (lighted land airport)
Operates sunset to sunrise.

Airport Communications

CTAF/UNICOM: 122.8
  • APCH/DEP SERVICE PRVDD BY MEMPHIS ARTCC ON FREQS 132.5/259.1 (JACKSON RCAG).

Nearby radio navigation aids

VOR radial/distance  VOR name  Freq  Var
MHZr327/32.6MAGNOLIA VORTAC113.2001W
SQSr192/36.1SIDON VORTAC114.7003E

Airport Services

Fuel available: 100LL
FUEL 24 HR CREDIT CARD SVC AVBL.
Parking: tiedowns
Airframe service: MINOR
EMERGENCY AIRFRAME AND POWERPLANT REPAIRS CALL 662-746-8999.
Powerplant service: MINOR

Runway Information

Runway 17/35

Dimensions: 5001 x 100 ft. / 1524 x 30 m
Surface: asphalt, in good condition
Weight bearing capacity: 
Single wheel: 30.0
Double tandem: 64.0
Runway edge lights: medium intensity
RUNWAY 17  RUNWAY 35
Latitude: 32-53.419198N32-52.599020N
Longitude: 090-27.889163W090-27.789462W
Elevation: 104.2 ft.104.2 ft.
Traffic pattern: leftleft
Runway heading: 174354
Markings: nonprecision, in good conditionnonprecision, in good condition
Visual slope indicator: 2-light PAPI on left (3.00 degrees glide path)2-light PAPI on left (3.00 degrees glide path)
Touchdown point: yes, no lightsyes, no lights
Obstructions: 80 ft. trees, 3000 ft. from runway, 250 ft. left of centerline, 35:1 slope to clear53 ft. trees, 1590 ft. from runway, 26:1 slope to clear

Airport Ownership and Management from official FAA records

Ownership: Publicly-owned
Owner: COUNTY OF YAZOO
P.O.BOX 172
YAZOO CITY, MS 39194
Phone 662-746-1273
Manager: JODY CARSON
57 CODY COVE
YAZOO CITY, MS 39194
Phone 662-571-4045

Airport Operational Statistics

Aircraft based on the field: 14
Single engine airplanes: 14
    
Aircraft operations: avg 27/day *
86% local general aviation
12% transient general aviation
1% military
* for 12-month period ending 03 February 2017

Instrument Procedures

NOTE: All procedures below are presented as PDF files. If you need a reader for these files, you should download the free Adobe Reader.

NOT FOR NAVIGATION. Please procure official charts for flight.
FAA instrument procedures published for use between 9 November 2017 at 0901Z and 7 December 2017 at 0900Z.

 
IAPs - Instrument Approach Procedures
RNAV (GPS) RWY 17   download (170KB)
RNAV (GPS) RWY 35   download (164KB)
NOTE: Special Take-Off Minimums/Departure Procedures apply   download (116KB)

Other nearby airports with instrument procedures:

19M - C A Moore Airport (26 nm NE)
KMBO - Bruce Campbell Field Airport (32 nm SE)
KJVW - John Bell Williams Airport (35 nm S)
KHKS - Hawkins Field Airport (35 nm S)
KIDL - Indianola Municipal Airport (38 nm N)
 
Loc | Ops | Rwys | IFR | FBO | Links
Com | Nav | Svcs | Stats | Notes


 
Area around 87I (Yazoo County Airport)
 
Road maps at: MapQuest Bing Google
 
Aerial photo
WARNING: Photo may not be current or correct
Aerial photo of 87I (Yazoo County Airport)
Photo by Bart Barrack
Photo taken 18-Nov-2008
from 9500 feet MSL

Do you have a better or more recent aerial photo of Yazoo County Airport that you would like to share? If so, please send us your photo.

 
Sectional chart

 
Airport distance calculator
Flying to Yazoo County Airport? Find the distance to fly.

From to 87I

Sunrise and sunset
Times for 18-Nov-2017
 Local
(UTC-6)
 Zulu
(UTC)
Morning civil twilight06:1012:10
Sunrise06:3612:36
Sunset16:5822:58
Evening civil twilight17:2423:24

Current date and time
Zulu (UTC)  19-Nov-2017 02:46:26
Local (UTC-6)  18-Nov-2017 20:46:26
 
METAR
KMBO 
32nm SE 
190235Z AUTO 32016G25KT 10SM BKN036 11/05 A3002 RMK AO2
KJVW 
35nm S 
190235Z AUTO 33011G24KT 10SM SCT036 SCT080 14/10 A3003 RMK AO2
KHKS 
35nm S 
190153Z 33015G30KT 10SM FEW039 FEW075 FEW100 14/07 A2998 RMK AO2 PK WND 31030/0148 SLP145 T01440072
KJAN 
39nm SE 
190154Z 33022G32KT 10SM SCT038 BKN075 BKN095 16/07 A2998 RMK AO2 PK WND 32032/0115 RAE0055 SLP148 P0000 T01560072
KGWO 
42nm NE 
190153Z AUTO 34017G28KT 10SM -RA SCT040 12/04 A3001 RMK AO2 PK WND 34029/0128 SLP160 P0000 T01170039 $
KTVR 
43nm SW 
190153Z AUTO 34009G21KT 10SM FEW042 14/07 A3003 RMK AO2 SLP177 T01390072
KGLH 
45nm NW 
190153Z AUTO 33014KT 10SM CLR 11/02 A3004 RMK AO2 PK WND 33035/0059 SLP181 T01110022
KVKS 
46nm SW 
190235Z AUTO 34016G21KT 10SM CLR 14/06 A3006 RMK A01
TAF
KHKS 
35nm S 
181749Z 1818/1918 19016G24KT P6SM SCT030 OVC040 FM182200 27017G29KT P6SM VCSH BKN025 OVC030 FM190100 32018G32KT P6SM OVC025 FM190400 34015G25KT P6SM BKN035 FM190800 35010KT P6SM SKC
KJAN 
39nm SE 
182038Z 1821/1918 19015G23KT P6SM BKN030 OVC050 FM182200 27017G29KT P6SM VCSH BKN025 OVC030 FM190100 32018G32KT P6SM OVC025 FM190400 34015G25KT P6SM BKN035 FM190800 35010KT P6SM SKC
KGWO 
42nm NE 
182102Z 1821/1918 22017G26KT P6SM SCT025 OVC040 FM182130 24023G35KT P6SM VCSH BKN030 OVC040 FM182300 30025G39KT P6SM OVC025 FM190300 34016G26KT P6SM BKN035 FM190800 33010KT P6SM SKC
NOTAMs
Click for the latest NOTAMs
NOTAMs are issued by the DoD/FAA and will open in a separate window not controlled by AirNav.

 

 
 

Would you like to see your business listed on this page?

 If your business provides an interesting product or service to pilots, flight crews, aircraft, or users of the Yazoo County Airport, you should consider listing it here.  To start the listing process, click on the button below
 
Add a business
 

Other Pages about Yazoo County Airport

www.yazoocounty.net/yazoo-county-airport
 
Update a link
 
Copyright © AirNav, LLC. All rights reserved. Privacy Policy  Contact